SMD weather

Smith Field
Fort Wayne, Indiana, United States

Public forecast

Using degrees Fahrenheit for public forecast. Weather courtesy of forecast.io.

Closest aviation weather report (METAR) to Smith Field

Closest report is Fort Wayne International Airport, 10.1 nm (18.7 km) S. Retrieved 2019/10/23 05:54 UTC (22 minutes ago):

KFWA 230554Z 24009KT 10SM CLR 08/02 A2987 RMK AO2 SLP116 60000 T00830017 10106 20083 53007

Closest aviation forecast (TAF) to Smith Field

Closest forecast is Fort Wayne International Airport, 10.1 nm (18.7 km) S. Retrieved 2019/10/23 06:45 UTC (0 seconds ago):

TAF KFWA 230542Z 2306/2406 25013KT P6SM SCT080 FM231500 22013G25KT P6SM SCT250 FM240200 20015KT P6SM SCT150 WS020/21045KT